Avon, NC

1:48 AM EDT on August 01, 2014 (GMT -0400)
KNCBUXTO2 Elev 42 ft | 35.26 °N, 75.53 °W | Change Station

Current weather conditions updated 13 minutes ago

Clear
Clear
77.3 °F
Feels Like 79 °F
N
5.0
Wind Variable Wind from ESE

Today is forecast to be Cooler than yesterday. Heavy thunderstorms.

Today
High -- | Low -- °F
--% Chance of Precip.
Yesterday
High -- | Low -- °F
Precip. -- in
6:10 AM 8:05 PM
Waxing Crescent, 24% visible
Pressure 30.15 in
Visibility 10.0 miles
Clouds Clear
Heat Index 79 °F
Dew Point 70 °F
Humidity 77%
Rainfall 0.00 in
Snow Depth Not available.
UV 0 out of 12
Pollen 5.80 out of 12
Air Quality Not available.
Flu Activity Not available.
METAR KHSE 010451Z AUTO 11010KT 10SM CLR 26/19 A3015 RMK AO2 SLP210 T02610189 403000217 TSNO

More Conditions Fewer Conditions

Pressure 30.15 in
Visibility 10.0 miles
Clouds Clear
Heat Index 79 °F
Dew Point 70 °F
Humidity 77%
Rainfall 0.00 in
Snow Depth Not available.
UV 0 out of 12
Pollen 5.80 out of 12
Air Quality Not available.
Flu Activity Not available.
METAR KHSE 010451Z AUTO 11010KT 10SM CLR 26/19 A3015 RMK AO2 SLP210 T02610189 403000217 TSNO

More Conditions Fewer Conditions

10-Day Weather Forecast

Almanac

Astronomy

Aug. 01, 2014 Rise Set
Actual Time 6:10 AM EDT 8:05 PM EDT
Civil Twilight 5:42 AM EDT 8:33 PM EDT
Nautical Twilight 5:08 AM EDT 9:07 PM EDT
Astronomical Twilight 4:32 AM EDT 9:43 PM EDT
Moon 11:18 AM EDT 11:03 PM EDT
Length of Visible Light 14h 50m
Length of Day
13h 54m
Tomorrow will be 1m 40s shorter.
Waxing Crescent, 24% of the Moon is Illuminated
Today
Waxing Crescent
Aug 3
First Quarter
Aug 10
Full
Aug 17
Last Quarter
Aug 25
New

Today's Extremes

State Highs State Lows

Community

WunderPhotos

Upload Photos

1,739,520 photos uploaded!

Nearby

Snow Depth

Station Depth Elevation
No new snow has been reported.

Earthquake Activity

City Distance Mag. Time & Date
No recent earthquake activity has been reported nearby.
Minimum magnitude displayed is 2.5.

Coastal Water Temperatures

Place Temperature
Oregon Inlet Marina, NC 79.0 °F
Hatteras, NC 80.1 °F
Duck Pier, NC 77.0 °F
Money Point, VA 81.0 °F
Beaufort, NC 82.0 °F
Sewells Point, VA 79.0 °F
Chesapeake Bay Bridge Tunnel, VA 73.0 °F

Nearby Weather Stations

Station Location Temp. Heat Index Dew Point Humidity Wind Precip. Elev Updated Type
Buxton, NC 77.3 °F 79 °F 70 °F 77% ESE  at  5.0 mph - / hr 42 ft 12:34 AM EST Normal
Frisco, NC, Hatteras, NC 79.6 °F 79 °F 50 °F 35% SE  at  8.0 mph 0.00 in / hr 55 ft 1:40 AM EDT Normal
Sandbaggas, Hatteras, NC 79.0 °F 81 °F 67 °F 66% ESE  at  3.2 mph - / hr 16 ft 1:39 AM EDT Normal

Show More Stations Show Fewer Stations